createdAt,value
2019-04-23T00:02:19.754Z,7.37
2019-04-23T00:04:48.006Z,9.47
2019-04-23T00:07:35.558Z,8.97
2019-04-23T00:10:03.445Z,7.43
2019-04-23T00:12:40.922Z,7.60
2019-04-23T00:17:40.318Z,7.03
2019-04-23T00:20:04.566Z,10.67
2019-04-23T00:22:55.091Z,6.97
2019-04-23T00:28:02.564Z,7.43
2019-04-23T00:30:36.576Z,6.77
2019-04-23T00:32:55.482Z,12.27
2019-04-23T00:35:32.681Z,8.03
2019-04-23T00:38:07.687Z,6.50
2019-04-23T00:40:31.772Z,10.53
2019-04-23T00:43:03.508Z,11.70
2019-04-23T00:45:39.908Z,8.50
2019-04-23T00:48:02.014Z,6.73
2019-04-23T00:50:46.563Z,10.30
2019-04-23T00:53:12.583Z,10.00
2019-04-23T00:55:43.757Z,8.27
2019-04-23T00:58:21.479Z,9.90
2019-04-23T01:05:46.980Z,11.33
2019-04-23T01:08:21.752Z,9.93
2019-04-23T01:10:54.025Z,9.83
2019-04-23T01:15:57.711Z,8.17
2019-04-23T01:20:54.645Z,8.63
2019-04-23T01:23:37.797Z,7.77
2019-04-23T01:26:23.938Z,7.40
2019-04-23T01:29:05.294Z,8.30
2019-04-23T01:31:31.137Z,8.77
2019-04-23T01:34:07.976Z,8.53
2019-04-23T01:36:34.702Z,8.70
2019-04-23T01:39:06.345Z,10.93
2019-04-23T01:41:38.001Z,10.13
2019-04-23T01:44:11.487Z,7.63
2019-04-23T01:46:46.267Z,11.37
2019-04-23T01:49:07.440Z,8.30
2019-04-23T01:51:55.701Z,10.67
2019-04-23T01:54:09.442Z,7.67
2019-04-23T01:56:54.995Z,10.97
2019-04-23T01:59:20.087Z,9.57
2019-04-23T02:01:47.977Z,12.43
2019-04-23T02:04:16.947Z,13.60
2019-04-23T02:06:45.039Z,16.47
2019-04-23T02:09:18.631Z,11.07
2019-04-23T02:12:07.591Z,11.57
2019-04-23T02:14:22.861Z,15.33
2019-04-23T02:16:50.284Z,9.43
2019-04-23T02:19:23.725Z,11.10
2019-04-23T02:22:03.980Z,12.77
2019-04-23T02:24:42.764Z,11.27
2019-04-23T02:27:16.473Z,12.73
2019-04-23T02:32:09.240Z,11.27
2019-04-23T02:34:57.791Z,9.17
2019-04-23T02:37:24.416Z,10.90
2019-04-23T02:42:40.126Z,10.43
2019-04-23T02:44:56.342Z,13.83
2019-04-23T02:47:23.125Z,9.20
2019-04-23T02:50:11.151Z,12.60
2019-04-23T02:52:21.312Z,11.63
2019-04-23T02:57:28.143Z,13.43
2019-04-23T03:00:19.283Z,11.53
2019-04-23T03:05:00.903Z,11.33
2019-04-23T03:07:40.899Z,14.67
2019-04-23T03:10:10.130Z,13.13
2019-04-23T03:13:13.780Z,12.67
2019-04-23T03:15:21.336Z,12.43
2019-04-23T03:17:49.276Z,12.13
2019-04-23T03:20:48.691Z,12.63
2019-04-23T03:23:27.429Z,10.63
2019-04-23T03:25:39.427Z,11.20
2019-04-23T03:28:25.254Z,15.87
2019-04-23T03:31:56.215Z,12.53
2019-04-23T03:34:21.025Z,12.90
2019-04-23T03:38:45.277Z,14.60
2019-04-23T03:41:15.818Z,12.10
2019-04-23T03:46:12.141Z,12.73
2019-04-23T03:48:32.310Z,10.83
2019-04-23T03:50:53.736Z,15.20
2019-04-23T03:56:05.466Z,10.87
2019-04-23T03:58:38.710Z,12.10
2019-04-23T04:01:07.168Z,14.60
2019-04-23T04:04:04.094Z,12.67
2019-04-23T04:06:13.855Z,11.00
2019-04-23T04:08:41.589Z,16.03
2019-04-23T04:11:12.398Z,12.53
2019-04-23T04:13:42.833Z,13.83
2019-04-23T04:18:45.827Z,11.17
2019-04-23T04:21:16.060Z,17.40
2019-04-23T04:23:58.296Z,13.40
2019-04-23T04:26:14.300Z,11.03
2019-04-23T04:28:58.825Z,11.80
2019-04-23T04:31:13.701Z,15.73
2019-04-23T04:34:08.541Z,12.20
2019-04-23T04:36:20.933Z,13.50
2019-04-23T04:41:27.683Z,16.23
2019-04-23T04:46:35.420Z,14.07
2019-04-23T04:48:59.098Z,13.10
2019-04-23T04:51:37.647Z,14.63
2019-04-23T04:56:30.467Z,12.00
2019-04-23T05:01:53.901Z,15.40
2019-04-23T05:03:57.939Z,16.43
2019-04-23T05:06:40.328Z,14.57
2019-04-23T05:09:11.991Z,13.47
2019-04-23T05:11:35.115Z,15.10
2019-04-23T05:14:06.631Z,13.30
2019-04-23T05:16:33.697Z,16.63
2019-04-23T05:19:23.479Z,19.13
2019-04-23T05:24:22.746Z,18.40
2019-04-23T05:26:29.347Z,10.97
2019-04-23T05:31:42.153Z,15.60
2019-04-23T05:34:19.583Z,11.87
2019-04-23T05:36:45.429Z,15.87
2019-04-23T05:39:23.433Z,13.70
2019-04-23T05:41:45.594Z,15.23
2019-04-23T05:44:21.585Z,13.60
2019-04-23T05:46:54.027Z,11.33
2019-04-23T05:49:39.498Z,15.63
2019-04-23T05:51:57.418Z,17.83
2019-04-23T05:54:29.973Z,20.20
2019-04-23T05:56:54.204Z,15.87
2019-04-23T05:59:30.286Z,18.27
2019-04-23T06:01:57.422Z,13.87
2019-04-23T06:04:32.767Z,18.73
2019-04-23T06:09:39.381Z,14.10
2019-04-23T06:12:04.735Z,15.70
2019-04-23T06:14:57.418Z,16.00
2019-04-23T06:17:19.032Z,18.27
2019-04-23T06:19:48.414Z,13.90
2019-04-23T06:22:27.270Z,14.77
2019-04-23T06:24:55.144Z,17.07
2019-04-23T06:27:18.167Z,12.60
2019-04-23T06:29:45.066Z,15.63
2019-04-23T06:32:22.821Z,23.53
2019-04-23T06:34:53.153Z,16.33
2019-04-23T06:37:25.809Z,14.40
2019-04-23T06:39:55.386Z,16.80
2019-04-23T06:42:23.379Z,28.47
2019-04-23T06:47:26.199Z,18.23
2019-04-23T06:49:55.928Z,17.90
2019-04-23T06:52:30.077Z,15.33
2019-04-23T06:55:01.522Z,16.00
2019-04-23T06:57:27.091Z,12.93
2019-04-23T06:59:59.212Z,15.17
2019-04-23T07:02:34.326Z,16.63
2019-04-23T07:07:50.042Z,19.87
2019-04-23T07:10:07.243Z,16.93
2019-04-23T07:12:38.830Z,16.77
2019-04-23T07:15:25.027Z,16.73
2019-04-23T07:17:34.887Z,17.13
2019-04-23T07:20:15.195Z,13.03
2019-04-23T07:22:39.356Z,15.63
2019-04-23T07:25:15.673Z,15.13
2019-04-23T07:27:43.205Z,18.33
2019-04-23T07:30:14.763Z,14.10
2019-04-23T07:35:11.583Z,15.17
2019-04-23T07:37:58.513Z,20.40
2019-04-23T07:42:51.297Z,16.53
2019-04-23T07:45:33.031Z,15.27
2019-04-23T07:55:51.371Z,16.17
2019-04-23T08:00:49.012Z,17.00
2019-04-23T08:05:42.618Z,17.80
2019-04-23T08:08:19.650Z,17.50
2019-04-23T08:11:30.589Z,20.30
2019-04-23T08:16:18.264Z,14.90
2019-04-23T08:18:46.814Z,21.17
2019-04-23T08:23:49.007Z,11.63
2019-04-23T08:26:33.627Z,17.20
2019-04-23T08:29:03.635Z,13.70
2019-04-23T08:31:38.589Z,11.93
2019-04-23T08:34:20.441Z,19.37
2019-04-23T08:36:44.276Z,17.37
2019-04-23T08:39:13.759Z,18.90
2019-04-23T08:41:46.034Z,14.00
2019-04-23T08:44:21.472Z,13.83
2019-04-23T08:49:29.370Z,13.17
2019-04-23T08:52:00.306Z,16.93
2019-04-23T08:54:37.046Z,11.97
2019-04-23T08:59:33.034Z,17.47
2019-04-23T09:02:15.857Z,18.93
2019-04-23T09:04:36.234Z,13.83
2019-04-23T09:07:04.509Z,11.17
2019-04-23T09:09:36.883Z,13.07
2019-04-23T09:12:03.285Z,16.20
2019-04-23T09:14:32.263Z,38.50
2019-04-23T09:17:06.818Z,39.90
2019-04-23T09:19:51.748Z,12.30
2019-04-23T09:22:14.160Z,20.53
2019-04-23T09:24:44.940Z,31.53
2019-04-23T09:27:16.396Z,16.03
2019-04-23T09:29:45.809Z,23.77
2019-04-23T09:32:26.924Z,23.13
2019-04-23T09:37:54.110Z,15.07
2019-04-23T09:40:41.680Z,17.23
2019-04-23T09:43:08.102Z,17.13
2019-04-23T09:45:46.847Z,16.27
2019-04-23T09:48:11.595Z,20.10
2019-04-23T09:50:42.069Z,33.10
2019-04-23T09:58:11.738Z,20.73
2019-04-23T10:01:00.361Z,17.30
2019-04-23T10:03:10.253Z,17.93
2019-04-23T10:05:33.960Z,17.63
2019-04-23T10:08:05.149Z,30.23
2019-04-23T10:10:26.216Z,16.73
2019-04-23T10:12:55.982Z,24.40
2019-04-23T10:15:32.441Z,26.67
2019-04-23T10:17:56.432Z,23.57
2019-04-23T10:20:26.747Z,15.53
2019-04-23T10:22:56.715Z,15.37
2019-04-23T10:25:27.750Z,22.87
2019-04-23T10:28:01.603Z,25.90
2019-04-23T10:30:28.868Z,21.10
2019-04-23T10:32:58.344Z,15.73
2019-04-23T10:35:38.611Z,35.53
2019-04-23T10:38:04.393Z,19.27
2019-04-23T10:40:34.826Z,23.80
2019-04-23T10:43:02.125Z,20.47
2019-04-23T10:45:48.433Z,17.47
2019-04-23T10:48:49.483Z,22.77
2019-04-23T10:51:28.569Z,36.03
2019-04-23T10:53:52.392Z,26.33
2019-04-23T10:56:36.164Z,20.47
2019-04-23T10:58:58.430Z,19.77
2019-04-23T11:01:28.245Z,18.00
2019-04-23T11:04:33.734Z,14.93
2019-04-23T11:06:44.268Z,27.77
2019-04-23T11:09:23.528Z,16.43
2019-04-23T11:11:48.292Z,21.70
2019-04-23T11:14:18.302Z,20.63
2019-04-23T11:19:15.154Z,27.83
2019-04-23T11:21:42.782Z,37.80
2019-04-23T11:29:19.394Z,20.83
2019-04-23T11:34:44.019Z,25.27
2019-04-23T11:39:24.287Z,25.90
2019-04-23T11:41:59.868Z,40.30
2019-04-23T11:44:28.904Z,31.37
2019-04-23T11:47:04.209Z,29.60
2019-04-23T11:49:51.553Z,29.27
2019-04-23T11:52:05.416Z,22.30
2019-04-23T11:54:30.681Z,19.67
2019-04-23T11:57:30.219Z,26.37
2019-04-23T11:59:43.619Z,34.90
2019-04-23T12:05:00.951Z,24.63
2019-04-23T12:07:33.902Z,24.00
2019-04-23T12:10:16.358Z,13.07
2019-04-23T12:17:47.090Z,28.37
2019-04-23T12:20:23.351Z,39.67
2019-04-23T12:22:57.477Z,34.07
2019-04-23T12:25:36.580Z,34.97
2019-04-23T12:27:39.717Z,23.13
2019-04-23T12:30:30.144Z,29.63
2019-04-23T12:37:53.871Z,29.67
2019-04-23T12:41:13.578Z,43.23
2019-04-23T12:43:04.887Z,24.97
2019-04-23T12:48:02.224Z,22.93
2019-04-23T12:58:09.928Z,34.73
2019-04-23T13:00:37.072Z,48.27
2019-04-23T13:03:08.580Z,34.60
2019-04-23T13:05:32.691Z,49.90
2019-04-23T13:08:33.266Z,65.57
2019-04-23T13:11:02.792Z,54.17
2019-04-23T13:13:23.569Z,69.47
2019-04-23T13:16:02.836Z,50.27
2019-04-23T13:18:17.506Z,30.13
2019-04-23T13:20:46.819Z,21.50
2019-04-23T13:23:22.290Z,47.30
2019-04-23T13:26:00.935Z,34.43
2019-04-23T13:28:38.835Z,27.60
2019-04-23T13:33:52.479Z,43.77
2019-04-23T13:36:17.534Z,56.90
2019-04-23T13:38:41.854Z,92.73
2019-04-23T13:41:23.145Z,37.93
2019-04-23T13:43:42.525Z,36.97
2019-04-23T13:46:31.118Z,38.40
2019-04-23T13:48:42.315Z,30.37
2019-04-23T13:51:35.852Z,28.27
2019-04-23T13:53:53.661Z,21.00
2019-04-23T13:56:25.247Z,43.03
2019-04-23T13:58:59.705Z,34.27
2019-04-23T14:03:54.472Z,45.27
2019-04-23T14:06:37.288Z,61.40
2019-04-23T14:08:59.745Z,29.33
2019-04-23T14:11:32.401Z,30.20
2019-04-23T14:14:05.817Z,38.63
2019-04-23T14:16:39.548Z,77.43
2019-04-23T14:19:02.359Z,61.57
2019-04-23T14:21:51.676Z,124.20
2019-04-23T14:24:18.040Z,41.93
2019-04-23T14:26:38.380Z,44.13
2019-04-23T14:29:14.701Z,36.00
2019-04-23T14:31:45.282Z,31.57
2019-04-23T14:36:52.137Z,40.43
2019-04-23T14:39:24.016Z,42.43
2019-04-23T14:44:27.519Z,38.47
2019-04-23T14:50:09.299Z,57.03
2019-04-23T14:52:21.343Z,84.03
2019-04-23T14:55:31.531Z,38.30
2019-04-23T14:57:24.707Z,81.97
2019-04-23T15:00:00.088Z,94.07
2019-04-23T15:02:31.489Z,35.57
2019-04-23T15:04:54.373Z,23.60
2019-04-23T15:10:06.987Z,41.50
2019-04-23T15:12:30.397Z,26.53
2019-04-23T15:15:08.254Z,31.80
2019-04-23T15:17:30.493Z,22.20
2019-04-23T15:20:06.690Z,39.73
2019-04-23T15:22:35.124Z,43.57
2019-04-23T15:25:21.603Z,49.13
2019-04-23T15:29:58.266Z,26.80
2019-04-23T15:33:04.226Z,23.60
2019-04-23T15:37:58.802Z,34.40
2019-04-23T15:40:15.212Z,31.87
2019-04-23T15:42:51.790Z,43.23
2019-04-23T15:45:15.119Z,87.27
2019-04-23T15:47:52.654Z,39.63
2019-04-23T15:50:22.752Z,62.43
2019-04-23T15:52:51.491Z,37.50
2019-04-23T15:55:33.975Z,49.33
2019-04-23T16:00:22.385Z,48.37
2019-04-23T16:02:24.371Z,20.73
2019-04-23T16:04:53.714Z,27.97
2019-04-23T16:07:44.121Z,32.03
2019-04-23T16:10:26.237Z,34.87
2019-04-23T16:12:56.783Z,44.97
2019-04-23T16:15:19.692Z,117.17
2019-04-23T16:18:10.805Z,58.33
2019-04-23T16:23:05.757Z,25.80
2019-04-23T16:25:31.704Z,34.60
2019-04-23T16:28:04.243Z,31.00
2019-04-23T16:30:31.041Z,26.43
2019-04-23T16:38:38.293Z,23.40
2019-04-23T16:40:54.713Z,24.07
2019-04-23T16:43:18.436Z,25.93
2019-04-23T16:48:55.468Z,23.07
2019-04-23T16:51:11.579Z,23.17
2019-04-23T16:53:25.165Z,24.63
2019-04-23T16:56:15.362Z,27.07
2019-04-23T17:03:31.894Z,21.17
2019-04-23T17:06:12.282Z,40.67
2019-04-23T17:08:51.943Z,19.10
2019-04-23T17:11:13.030Z,21.40
2019-04-23T17:13:59.065Z,25.60
2019-04-23T17:18:41.092Z,27.10
2019-04-23T17:23:49.703Z,17.23
2019-04-23T17:28:47.457Z,27.70
2019-04-23T17:33:54.114Z,23.43
2019-04-23T17:39:02.793Z,20.83
2019-04-23T17:42:01.628Z,32.23
2019-04-23T17:44:23.622Z,29.13
2019-04-23T17:46:57.969Z,26.60
2019-04-23T17:49:22.220Z,28.93
2019-04-23T17:51:55.841Z,23.27
2019-04-23T17:54:32.204Z,24.60
2019-04-23T17:57:08.992Z,20.60
2019-04-23T18:00:01.009Z,24.17
2019-04-23T18:04:56.831Z,40.27
2019-04-23T18:07:31.925Z,19.87
2019-04-23T18:10:08.636Z,15.70
2019-04-23T18:14:50.839Z,22.80
2019-04-23T18:17:35.520Z,21.70
2019-04-23T18:20:06.627Z,21.80
2019-04-23T18:22:37.334Z,21.43
2019-04-23T18:25:32.278Z,22.97
2019-04-23T18:27:50.686Z,28.83
2019-04-23T18:30:35.374Z,24.97
2019-04-23T18:33:43.718Z,18.80
2019-04-23T18:35:47.719Z,20.97
2019-04-23T18:38:13.885Z,22.47
2019-04-23T18:40:54.606Z,17.80
2019-04-23T18:43:20.656Z,21.90
2019-04-23T18:45:53.992Z,23.33
2019-04-23T18:51:03.819Z,39.50
2019-04-23T18:58:49.975Z,24.07
2019-04-23T19:01:11.036Z,23.77
2019-04-23T19:04:00.481Z,19.37
2019-04-23T19:06:25.801Z,15.20
2019-04-23T19:11:51.467Z,17.70
2019-04-23T19:14:19.989Z,20.67
2019-04-23T19:16:55.267Z,19.93
2019-04-23T19:19:20.360Z,23.03
2019-04-23T19:24:21.917Z,20.23
2019-04-23T19:32:00.733Z,20.47
2019-04-23T19:37:06.069Z,23.73
2019-04-23T19:42:03.769Z,21.47
2019-04-23T19:44:40.697Z,20.00
2019-04-23T19:47:09.545Z,17.97
2019-04-23T19:49:41.827Z,20.77
2019-04-23T19:52:03.480Z,22.10
2019-04-23T19:54:54.173Z,22.27
2019-04-23T19:57:13.050Z,22.43
2019-04-23T20:02:22.884Z,27.43
2019-04-23T20:04:46.073Z,18.03
2019-04-23T20:07:43.226Z,18.87
2019-04-23T20:12:25.911Z,17.83
2019-04-23T20:14:51.784Z,19.40
2019-04-23T20:22:34.028Z,19.53
2019-04-23T20:25:10.111Z,19.20
2019-04-23T20:27:26.691Z,21.53
2019-04-23T20:35:24.135Z,20.87
2019-04-23T20:40:15.085Z,19.00
2019-04-23T20:42:46.761Z,21.73
2019-04-23T20:45:39.054Z,19.57
2019-04-23T20:47:51.308Z,19.00
2019-04-23T20:50:18.130Z,18.53
2019-04-23T20:52:46.853Z,17.57
2019-04-23T20:55:26.075Z,20.67
2019-04-23T20:58:07.237Z,25.27
2019-04-23T21:00:57.124Z,22.57
2019-04-23T21:03:30.374Z,19.80
2019-04-23T21:05:41.879Z,15.43
2019-04-23T21:08:30.362Z,15.13
2019-04-23T21:10:58.344Z,15.60
2019-04-23T21:15:54.603Z,17.33
2019-04-23T21:18:32.231Z,18.47
2019-04-23T21:20:56.263Z,17.20
2019-04-23T21:23:45.726Z,27.20
2019-04-23T21:25:52.547Z,19.90
2019-04-23T21:28:48.676Z,19.50
2019-04-23T21:33:49.884Z,15.13
2019-04-23T21:39:15.369Z,16.13
2019-04-23T21:42:01.636Z,18.30
2019-04-23T21:44:35.498Z,19.53
2019-04-23T21:46:58.808Z,20.23
2019-04-23T21:54:20.793Z,21.73
2019-04-23T21:57:12.167Z,19.00
2019-04-23T21:59:29.540Z,19.77
2019-04-23T22:02:03.623Z,16.53
2019-04-23T22:04:34.203Z,14.47
2019-04-23T22:07:04.673Z,16.57
2019-04-23T22:12:08.950Z,22.27
2019-04-23T22:14:40.563Z,20.07
2019-04-23T22:17:10.327Z,21.37
2019-04-23T22:19:45.578Z,17.30
2019-04-23T22:22:10.848Z,16.90
2019-04-23T22:27:09.753Z,19.60
2019-04-23T22:29:43.497Z,22.00
2019-04-23T22:32:12.924Z,19.13
2019-04-23T22:34:57.185Z,18.23
2019-04-23T22:37:23.530Z,19.93
2019-04-23T22:39:54.180Z,21.30
2019-04-23T22:45:05.547Z,15.30
2019-04-23T22:47:24.851Z,15.13
2019-04-23T22:50:00.560Z,19.93
2019-04-23T22:52:33.741Z,20.40
2019-04-23T22:55:02.252Z,22.70
2019-04-23T22:57:50.312Z,24.70
2019-04-23T23:02:55.621Z,20.40
2019-04-23T23:10:24.567Z,18.67
2019-04-23T23:13:02.314Z,18.60
2019-04-23T23:15:24.514Z,17.40
2019-04-23T23:17:59.966Z,18.07
2019-04-23T23:23:06.160Z,19.87
2019-04-23T23:25:24.661Z,18.73
2019-04-23T23:28:05.888Z,28.80
2019-04-23T23:30:33.765Z,21.40
2019-04-23T23:33:02.568Z,16.87
2019-04-23T23:35:44.555Z,24.73
2019-04-23T23:38:09.795Z,17.70
2019-04-23T23:40:36.613Z,20.13
2019-04-23T23:43:14.590Z,21.77
2019-04-23T23:48:08.395Z,18.80
2019-04-23T23:50:44.927Z,22.17
2019-04-23T23:53:18.459Z,21.67
2019-04-23T23:55:48.714Z,21.10
2019-04-23T23:58:25.419Z,19.17
